Terminal Aerodrome Forecast
Issued by NWS Louisville, KY

Home | Current Version | Previous Version | Text Only | Print | Product List | Glossary On
Versions: 1 2 3 4 5 6 7 8 9 10 11 12 13 14
055
FTUS43 KLMK 222320
TAFBWG
TAF
KBWG 222320Z 2300/2324 23009KT P6SM FEW050 SCT250
     FM231500 24010G15KT P6SM SCT050 BKN250 PROB30 2316/2320
      VRB15G25KT 3SM -TSRA BKN025CB
     FM232000 26009KT P6SM VCTS SCT040CB BKN100=

USA.gov is the U.S. government's official web portal to all federal, state and local government web resources and services.